Terminal Aerodrome Forecast
Issued by NWS Atlanta, GA

Home | Current Version | Previous Version | Text Only | Print | Product List | Glossary On
Versions: 1 2 3 4 5 6 7 8 9 10 11 12 13 14 15 16 17 18 19 20
000
FTUS42 KFFC 300500
TAFCSG
TAF
KCSG 300526Z 3006/0106 06004KT 5SM -DZ BR BKN008
     FM300800 06004KT 4SM -DZ BR OVC004
     FM301400 06005KT 6SM BR SCT015
     FM301700 06005KT P6SM SCT040
     FM302200 VRB03KT P6SM FEW100=

USA.gov is the U.S. government's official web portal to all federal, state and local government web resources and services.